Time;durP1;ratioP1;P1;durP2;ratioP2;P2;SDS_P1;SDS_P2;PMS_P1;PMS_P2;Temp;Humidity;BMP_temperature;BMP_pressure;BME280_temperature;BME280_humidity;BME280_pressure;Samples;Min_cycle;Max_cycle;Signal;HPM_P1;HPM_P2
2021/11/29 00:00:52;;;;;;;1.52;1.15;;;;;;;;;;5025604;28;20483;-77
2021/11/29 00:03:18;;;;;;;0.70;0.70;;;1.80;99.90;;;;;;5013273;28;20037;-76
2021/11/29 00:05:44;;;;;;;0.77;0.77;;;2.00;99.90;;;;;;5028749;28;20450;-76
2021/11/29 00:08:10;;;;;;;0.90;0.90;;;1.70;99.90;;;;;;5030198;28;20042;-76
2021/11/29 00:10:36;;;;;;;1.00;1.00;;;1.80;99.90;;;;;;5022649;28;20088;-76
2021/11/29 00:13:02;;;;;;;0.80;0.80;;;1.70;99.90;;;;;;5017054;28;20507;-76
2021/11/29 00:15:28;;;;;;;;;;;2.10;99.90;;;;;;5010491;28;20036;-76
2021/11/29 00:17:54;;;;;;;0.80;0.80;;;1.70;99.90;;;;;;5018046;28;19917;-76
2021/11/29 00:20:20;;;;;;;1.25;1.15;;;1.60;99.90;;;;;;5014041;28;20056;-76
2021/11/29 00:22:47;;;;;;;5.25;1.25;;;1.70;99.90;;;;;;5029166;28;20049;-76
2021/11/29 00:25:14;;;;;;;0.88;0.88;;;2.20;99.90;;;;;;5029430;28;20045;-77
2021/11/29 00:27:41;;;;;;;0.80;0.80;;;2.40;99.90;;;;;;5028199;28;20089;-76
2021/11/29 00:30:09;;;;;;;5.10;1.83;;;1.80;99.90;;;;;;5015128;28;20104;-77
2021/11/29 00:32:35;;;;;;;5.82;0.90;;;1.60;99.90;;;;;;5020519;28;20041;-75
2021/11/29 00:35:02;;;;;;;0.80;0.80;;;1.80;99.90;;;;;;5008784;28;20104;-76
2021/11/29 00:37:28;;;;;;;1.83;1.67;;;1.60;99.90;;;;;;5022448;28;20045;-77
2021/11/29 00:39:55;;;;;;;0.80;0.80;;;1.70;99.90;;;;;;5000483;28;20077;-79
2021/11/29 00:42:21;;;;;;;1.02;1.00;;;1.80;99.90;;;;;;5023215;28;20478;-79
2021/11/29 00:44:47;;;;;;;0.90;0.90;;;2.10;99.90;;;;;;5031211;28;20063;-76
2021/11/29 00:47:13;;;;;;;;;;;2.00;99.90;;;;;;5007645;28;20034;-78
2021/11/29 00:49:39;;;;;;;0.70;0.70;;;2.10;99.90;;;;;;5016514;28;19921;-77
2021/11/29 00:52:05;;;;;;;0.80;0.80;;;2.00;99.90;;;;;;5029463;28;20052;-79
2021/11/29 00:54:31;;;;;;;0.73;0.73;;;2.00;99.90;;;;;;5033027;28;20043;-76
2021/11/29 00:56:56;;;;;;;0.90;0.90;;;2.10;99.90;;;;;;5006089;28;20116;-77
2021/11/29 00:59:22;;;;;;;0.80;0.80;;;2.10;99.90;;;;;;5028819;28;20049;-77
2021/11/29 01:01:48;;;;;;;0.88;0.88;;;2.50;99.90;;;;;;5017325;28;20049;-76
2021/11/29 01:04:13;;;;;;;0.80;0.80;;;2.20;99.90;;;;;;5013662;28;20045;-77
2021/11/29 01:06:39;;;;;;;0.80;0.80;;;2.30;99.90;;;;;;5013141;28;20049;-78
2021/11/29 01:09:05;;;;;;;0.80;0.80;;;2.90;99.90;;;;;;5007973;28;20042;-77
2021/11/29 01:11:31;;;;;;;0.70;0.70;;;2.90;99.90;;;;;;5017582;28;20033;-78
2021/11/29 01:13:57;;;;;;;0.80;0.80;;;2.50;99.90;;;;;;5028781;28;20104;-77
2021/11/29 01:16:23;;;;;;;;;;;3.00;99.90;;;;;;5027744;28;20056;-78
2021/11/29 01:18:49;;;;;;;0.68;0.68;;;2.50;99.90;;;;;;5022509;28;19917;-78
2021/11/29 01:21:17;;;;;;;0.80;0.80;;;2.50;99.90;;;;;;5018169;28;20053;-76
2021/11/29 01:23:44;;;;;;;0.70;0.70;;;3.10;99.90;;;;;;5029865;28;20098;-77
2021/11/29 01:26:10;;;;;;;0.80;0.80;;;2.90;99.90;;;;;;5034227;28;20098;-78
2021/11/29 01:28:37;;;;;;;0.80;0.80;;;2.60;99.90;;;;;;5037364;28;20085;-78
2021/11/29 01:31:03;;;;;;;0.60;0.60;;;2.60;99.90;;;;;;5031508;28;20377;-79
2021/11/29 01:33:29;;;;;;;0.70;0.70;;;2.70;99.90;;;;;;5030665;28;20055;-79
2021/11/29 01:35:55;;;;;;;0.80;0.80;;;2.90;99.90;;;;;;5036611;28;20152;-78
2021/11/29 01:38:20;;;;;;;0.68;0.68;;;2.40;99.90;;;;;;5048701;28;20041;-78
2021/11/29 01:40:46;;;;;;;0.75;0.75;;;2.30;99.90;;;;;;5043102;28;20048;-78
2021/11/29 01:43:14;;;;;;;1.02;1.02;;;2.70;99.90;;;;;;5036604;28;20108;-78
2021/11/29 01:45:47;;;;;;;1.25;1.15;;;2.00;99.90;;;;;;5038748;28;20120;-78
2021/11/29 01:48:13;;;;;;;0.73;0.73;;;2.60;99.90;;;;;;5031569;28;20034;-77
2021/11/29 01:50:42;;;;;;;1.10;1.00;;;1.90;99.90;;;;;;5034968;28;20041;-77
2021/11/29 01:53:08;;;;;;;0.90;0.80;;;1.80;99.90;;;;;;5028073;28;20053;-77
2021/11/29 01:55:36;;;;;;;0.73;0.73;;;1.70;99.90;;;;;;5034472;28;20391;-77
2021/11/29 01:58:03;;;;;;;0.73;0.73;;;1.60;99.90;;;;;;5023142;28;20103;-77
2021/11/29 02:00:33;;;;;;;0.80;0.80;;;1.50;99.90;;;;;;5038365;28;20044;-78
2021/11/29 02:02:59;;;;;;;0.80;0.80;;;1.50;99.90;;;;;;5016480;28;20074;-77
2021/11/29 02:05:26;;;;;;;0.77;0.77;;;1.60;99.90;;;;;;5039255;28;20442;-78
2021/11/29 02:07:52;;;;;;;0.70;0.70;;;1.60;99.90;;;;;;5043736;28;20659;-77
2021/11/29 02:10:21;;;;;;;0.70;0.70;;;1.40;99.90;;;;;;5014772;28;20084;-77
2021/11/29 02:12:47;;;;;;;0.70;0.70;;;1.90;99.90;;;;;;5010586;28;20041;-77
2021/11/29 02:15:14;;;;;;;0.73;0.73;;;1.60;99.90;;;;;;5023185;28;20034;-77
2021/11/29 02:17:41;;;;;;;0.68;0.68;;;1.70;99.90;;;;;;5039727;28;20401;-77
2021/11/29 02:20:08;;;;;;;0.70;0.70;;;1.70;99.90;;;;;;5027107;28;20548;-77
2021/11/29 02:22:35;;;;;;;0.80;0.80;;;1.70;99.90;;;;;;5012492;28;20048;-77
2021/11/29 02:25:00;;;;;;;1.00;1.00;;;1.90;99.90;;;;;;5022649;28;20372;-77
2021/11/29 02:27:26;;;;;;;0.70;0.70;;;1.80;99.90;;;;;;5014623;28;20170;-77
2021/11/29 02:29:54;;;;;;;0.70;0.70;;;1.80;99.90;;;;;;5012909;28;20120;-78
2021/11/29 02:32:20;;;;;;;0.75;0.75;;;1.90;99.90;;;;;;5011669;28;20107;-77
2021/11/29 02:34:47;;;;;;;0.70;0.70;;;1.80;99.90;;;;;;5001333;28;20049;-77
2021/11/29 02:37:14;;;;;;;0.70;0.70;;;1.90;99.90;;;;;;5013356;28;20049;-77
2021/11/29 02:39:41;;;;;;;0.70;0.70;;;1.80;99.90;;;;;;5015790;28;20049;-78
2021/11/29 02:42:09;;;;;;;0.85;0.70;;;2.00;99.90;;;;;;4998028;28;20458;-78
2021/11/29 02:44:35;;;;;;;2.75;1.30;;;2.00;99.90;;;;;;5015940;28;20040;-78
2021/11/29 02:47:01;;;;;;;1.10;1.10;;;2.10;99.90;;;;;;5012587;28;20052;-78
2021/11/29 02:49:27;;;;;;;;;;;2.10;99.90;;;;;;5013872;28;20045;-78
2021/11/29 02:51:56;;;;;;;0.63;0.63;;;2.00;99.90;;;;;;4977951;28;20286;-78
2021/11/29 02:54:28;;;;;;;0.77;0.77;;;2.10;99.90;;;;;;5018115;28;20032;-78
2021/11/29 02:56:58;;;;;;;4.57;1.10;;;2.10;99.90;;;;;;5013346;28;20037;-78
2021/11/29 02:59:28;;;;;;;4.90;1.00;;;2.20;99.90;;;;;;5019309;28;20045;-78
2021/11/29 03:01:58;;;;;;;0.70;0.70;;;2.10;99.90;;;;;;5011888;28;20045;-78
2021/11/29 03:04:26;;;;;;;0.80;0.80;;;2.10;99.90;;;;;;5011510;28;20056;-77
2021/11/29 03:06:52;;;;;;;0.75;0.75;;;2.20;99.90;;;;;;5015566;28;20125;-77
2021/11/29 03:09:19;;;;;;;0.80;0.80;;;2.00;99.90;;;;;;5013997;28;20136;-77
2021/11/29 03:11:45;;;;;;;0.80;0.80;;;1.90;99.90;;;;;;5015273;28;20495;-79
2021/11/29 03:14:11;;;;;;;0.73;0.73;;;1.90;99.90;;;;;;5015320;28;20129;-78
2021/11/29 03:16:38;;;;;;;0.80;0.80;;;1.90;99.90;;;;;;5013716;28;20037;-78
2021/11/29 03:19:03;;;;;;;1.00;0.90;;;1.90;99.90;;;;;;5011743;28;20083;-78
2021/11/29 03:21:30;;;;;;;0.80;0.80;;;1.90;99.90;;;;;;5012990;28;20278;-78
2021/11/29 03:23:59;;;;;;;0.70;0.70;;;1.90;99.90;;;;;;5031030;28;20046;-78
2021/11/29 03:26:26;;;;;;;0.73;0.73;;;1.90;99.90;;;;;;5030404;28;20072;-78
2021/11/29 03:28:55;;;;;;;0.80;0.80;;;2.00;99.90;;;;;;5018984;28;20488;-78
2021/11/29 03:31:22;;;;;;;0.70;0.70;;;2.40;99.90;;;;;;5037453;28;20482;-78
2021/11/29 03:33:48;;;;;;;0.82;0.82;;;2.20;99.90;;;;;;5044352;28;20459;-78
2021/11/29 03:36:15;;;;;;;1.58;0.95;;;2.10;99.90;;;;;;5042156;28;20084;-77
2021/11/29 03:38:42;;;;;;;0.90;0.90;;;2.20;99.90;;;;;;5010238;28;20087;-77
2021/11/29 03:41:09;;;;;;;0.80;0.80;;;2.20;99.90;;;;;;5007531;28;20049;-77
2021/11/29 03:43:35;;;;;;;0.90;0.90;;;3.00;99.90;;;;;;5007826;28;20390;-77
2021/11/29 03:46:01;;;;;;;0.80;0.80;;;2.50;99.90;;;;;;5017323;28;20051;-77
2021/11/29 03:48:26;;;;;;;0.90;0.90;;;2.40;99.90;;;;;;5034552;28;20045;-77
2021/11/29 03:50:53;;;;;;;1.00;0.93;;;2.50;99.90;;;;;;5024594;28;20118;-77
2021/11/29 03:53:18;;;;;;;;;;;2.60;99.90;;;;;;5025936;28;20041;-78
2021/11/29 03:55:44;;;;;;;0.70;0.70;;;2.60;99.90;;;;;;5014625;28;19979;-77
2021/11/29 03:58:10;;;;;;;0.85;0.85;;;2.80;99.90;;;;;;5014665;28;20088;-77
2021/11/29 04:00:37;;;;;;;;;;;2.80;99.90;;;;;;5029031;28;20041;-77
2021/11/29 04:03:02;;;;;;;0.85;0.85;;;2.90;99.90;;;;;;5033373;28;19916;-78
2021/11/29 04:05:28;;;;;;;0.80;0.80;;;2.90;99.90;;;;;;5029801;28;20051;-78
2021/11/29 04:07:54;;;;;;;0.70;0.70;;;3.30;99.90;;;;;;5037315;28;20038;-79
2021/11/29 04:10:20;;;;;;;0.65;0.65;;;3.00;99.90;;;;;;5027341;28;20778;-78
2021/11/29 04:12:46;;;;;;;0.88;0.88;;;3.00;99.90;;;;;;5040487;28;20043;-78
2021/11/29 04:15:12;;;;;;;0.80;0.80;;;3.20;99.90;;;;;;5035713;28;20045;-78
2021/11/29 04:17:41;;;;;;;0.80;0.80;;;3.20;99.90;;;;;;5036098;28;20040;-79
2021/11/29 04:20:13;;;;;;;5.93;1.05;;;3.10;99.90;;;;;;5010239;28;20056;-78
2021/11/29 04:22:39;;;;;;;0.70;0.70;;;3.10;99.90;;;;;;5014160;28;20037;-79
2021/11/29 04:25:07;;;;;;;0.70;0.70;;;3.20;99.90;;;;;;5021260;28;20054;-78
2021/11/29 04:27:34;;;;;;;0.80;0.80;;;3.10;99.90;;;;;;5043088;28;20041;-77
2021/11/29 04:30:06;;;;;;;0.70;0.70;;;3.00;99.90;;;;;;5019672;28;20053;-76
2021/11/29 04:32:31;;;;;;;0.90;0.90;;;3.10;99.90;;;;;;5015893;28;20092;-77
2021/11/29 04:34:57;;;;;;;0.70;0.70;;;3.00;99.90;;;;;;5010827;28;20041;-77
2021/11/29 04:37:23;;;;;;;0.70;0.70;;;3.30;99.90;;;;;;5025825;28;20051;-78
2021/11/29 04:39:49;;;;;;;0.70;0.70;;;3.30;99.90;;;;;;5016141;28;20433;-78
2021/11/29 04:42:15;;;;;;;1.65;1.55;;;3.10;99.90;;;;;;5003913;28;20042;-77
2021/11/29 04:44:41;;;;;;;1.20;0.90;;;3.30;99.90;;;;;;5009749;28;20045;-78
2021/11/29 04:47:07;;;;;;;0.80;0.80;;;3.00;99.90;;;;;;5015440;28;20050;-78
2021/11/29 04:49:33;;;;;;;0.65;0.65;;;2.90;99.90;;;;;;5010322;28;20165;-78
2021/11/29 04:51:58;;;;;;;1.08;0.93;;;3.00;99.90;;;;;;4991313;28;20038;-78
2021/11/29 04:54:24;;;;;;;0.63;0.63;;;2.80;99.90;;;;;;5018145;28;20046;-78
2021/11/29 04:56:50;;;;;;;0.70;0.70;;;2.80;99.90;;;;;;5009304;28;20440;-76
2021/11/29 04:59:16;;;;;;;0.80;0.80;;;2.80;99.90;;;;;;5028504;28;20532;-78
2021/11/29 05:01:41;;;;;;;1.02;1.02;;;2.70;99.90;;;;;;4996175;28;20258;-78
2021/11/29 05:04:07;;;;;;;0.80;0.80;;;2.70;99.90;;;;;;4993102;28;20052;-78
2021/11/29 05:06:36;;;;;;;0.75;0.75;;;3.00;99.90;;;;;;5011810;28;20052;-78
2021/11/29 05:09:04;;;;;;;0.60;0.60;;;2.40;99.90;;;;;;5014848;28;20049;-78
2021/11/29 05:11:29;;;;;;;0.70;0.70;;;2.20;99.90;;;;;;5030097;28;20065;-78
2021/11/29 05:13:55;;;;;;;0.80;0.80;;;2.10;99.90;;;;;;5008047;28;20084;-78
2021/11/29 05:16:21;;;;;;;0.60;0.60;;;2.30;99.90;;;;;;5025495;28;20044;-78
2021/11/29 05:18:46;;;;;;;1.20;1.15;;;2.00;99.90;;;;;;5018948;28;20180;-78
2021/11/29 05:21:12;;;;;;;0.85;0.85;;;2.00;99.90;;;;;;4997401;28;20530;-77
2021/11/29 05:23:38;;;;;;;0.93;0.93;;;2.00;99.90;;;;;;5008962;28;20069;-78
2021/11/29 05:26:04;;;;;;;0.88;0.88;;;2.10;99.90;;;;;;5027339;28;20049;-78
2021/11/29 05:28:29;;;;;;;1.25;1.15;;;2.10;99.90;;;;;;5003408;28;20061;-77
2021/11/29 05:30:55;;;;;;;0.73;0.73;;;1.70;99.90;;;;;;5035294;28;20049;-77
2021/11/29 05:33:21;;;;;;;0.77;0.77;;;1.70;99.90;;;;;;5001810;28;20041;-77
2021/11/29 05:35:46;;;;;;;1.33;1.23;;;1.50;99.90;;;;;;5021477;28;20041;-78
2021/11/29 05:38:12;;;;;;;0.70;0.70;;;1.50;99.90;;;;;;5010357;28;20033;-77
2021/11/29 05:40:38;;;;;;;0.90;0.90;;;1.40;99.90;;;;;;5014844;28;20056;-77
2021/11/29 05:43:04;;;;;;;0.70;0.70;;;1.20;99.90;;;;;;5013109;28;20053;-77
2021/11/29 05:45:30;;;;;;;0.93;0.93;;;1.10;99.90;;;;;;5014612;28;20077;-77
2021/11/29 05:47:56;;;;;;;1.48;1.38;;;1.20;99.90;;;;;;4996219;28;20124;-77
2021/11/29 05:50:22;;;;;;;0.90;0.90;;;1.30;99.90;;;;;;5007825;28;20026;-77
2021/11/29 05:52:47;;;;;;;;;;;0.90;99.90;;;;;;5019936;28;20041;-77
2021/11/29 05:55:16;;;;;;;0.60;0.60;;;0.80;99.90;;;;;;5013156;28;20484;-77
2021/11/29 05:57:43;;;;;;;0.70;0.70;;;0.90;99.90;;;;;;5011501;28;20076;-77
2021/11/29 06:00:12;;;;;;;4.93;1.48;;;0.90;99.90;;;;;;5015073;28;20045;-76
2021/11/29 06:02:39;;;;;;;0.85;0.85;;;0.90;99.90;;;;;;5013847;28;20045;-76
2021/11/29 06:05:06;;;;;;;0.90;0.90;;;0.90;99.90;;;;;;5014586;28;20054;-77
2021/11/29 06:07:32;;;;;;;1.20;1.10;;;0.80;99.90;;;;;;5008777;28;20208;-76
2021/11/29 06:09:57;;;;;;;0.70;0.70;;;0.70;99.90;;;;;;5013959;28;20501;-76
2021/11/29 06:12:23;;;;;;;0.90;0.90;;;1.10;99.90;;;;;;5018279;28;20144;-78
2021/11/29 06:14:49;;;;;;;1.13;1.02;;;0.80;99.90;;;;;;5006332;28;20056;-78
2021/11/29 06:17:14;;;;;;;0.90;0.90;;;0.80;99.90;;;;;;5019700;28;20044;-77
2021/11/29 06:19:40;;;;;;;1.00;1.00;;;0.60;99.90;;;;;;5017599;28;20482;-78
2021/11/29 06:22:06;;;;;;;1.15;1.10;;;0.50;99.90;;;;;;5014459;28;20603;-77
2021/11/29 06:24:32;;;;;;;2.17;1.88;;;0.50;99.90;;;;;;5020047;28;20041;-77
2021/11/29 06:26:57;;;;;;;0.90;0.90;;;0.50;99.90;;;;;;5008710;28;20076;-78
2021/11/29 06:29:23;;;;;;;3.13;1.20;;;0.90;99.90;;;;;;5017593;28;20120;-77
2021/11/29 06:31:49;;;;;;;0.80;0.80;;;0.60;99.90;;;;;;5048073;28;20518;-77
2021/11/29 06:34:14;;;;;;;1.30;1.20;;;1.20;99.90;;;;;;5014819;28;20184;-77
2021/11/29 06:36:40;;;;;;;1.10;1.00;;;0.50;99.90;;;;;;5012965;28;20050;-77
2021/11/29 06:39:06;;;;;;;1.50;1.40;;;0.60;99.90;;;;;;5027613;28;20041;-77
2021/11/29 06:41:32;;;;;;;1.77;1.13;;;0.70;99.90;;;;;;5025683;28;20046;-77
2021/11/29 06:43:57;;;;;;;1.15;1.08;;;0.70;99.90;;;;;;5009366;28;20540;-76
2021/11/29 06:46:23;;;;;;;1.83;1.20;;;0.40;99.90;;;;;;5033767;28;20395;-76
2021/11/29 06:48:49;;;;;;;2.08;1.20;;;0.60;99.90;;;;;;5054508;28;20095;-77
2021/11/29 06:51:16;;;;;;;0.90;0.90;;;0.70;99.90;;;;;;5014158;28;20095;-77
2021/11/29 06:53:42;;;;;;;1.00;1.00;;;0.20;99.90;;;;;;5027249;28;20411;-78
2021/11/29 06:56:08;;;;;;;1.25;1.20;;;0.10;99.90;;;;;;5034469;28;20040;-77
2021/11/29 06:58:36;;;;;;;1.63;1.52;;;0.20;99.90;;;;;;5041268;28;20512;-77
2021/11/29 07:01:04;;;;;;;1.00;0.95;;;0.40;99.90;;;;;;5025394;28;20572;-77
2021/11/29 07:03:31;;;;;;;1.00;1.00;;;0.30;99.90;;;;;;5025760;28;20403;-77
2021/11/29 07:05:56;;;;;;;0.98;0.98;;;0.40;99.90;;;;;;5034561;28;20098;-77
2021/11/29 07:08:23;;;;;;;1.00;0.98;;;0.00;99.90;;;;;;5037882;28;20048;-77
2021/11/29 07:10:50;;;;;;;1.00;1.00;;;0.30;99.90;;;;;;5024104;28;20172;-77
2021/11/29 07:13:16;;;;;;;1.20;1.10;;;0.10;99.90;;;;;;5026789;28;20092;-76
2021/11/29 07:15:42;;;;;;;;;;;0.30;99.90;;;;;;5032838;28;20033;-76
2021/11/29 07:18:09;;;;;;;1.30;1.20;;;0.10;99.90;;;;;;5026186;28;19932;-77
2021/11/29 07:20:35;;;;;;;0.80;0.80;;;0.30;99.90;;;;;;4991797;28;20045;-77
2021/11/29 07:23:02;;;;;;;0.90;0.90;;;-0.20;99.90;;;;;;5019091;28;20049;-77
2021/11/29 07:25:28;;;;;;;1.73;1.63;;;0.00;99.90;;;;;;4998796;28;20117;-77
2021/11/29 07:27:54;;;;;;;0.90;0.90;;;-0.30;99.90;;;;;;5025609;28;20673;-76
2021/11/29 07:30:21;;;;;;;1.08;1.00;;;0.00;99.90;;;;;;5017653;28;20103;-77
2021/11/29 07:32:48;;;;;;;1.63;1.52;;;-0.30;99.90;;;;;;5022346;28;20053;-76
2021/11/29 07:35:14;;;;;;;2.15;2.03;;;-0.30;99.90;;;;;;5016652;28;20121;-76
2021/11/29 07:37:41;;;;;;;1.35;1.25;;;0.00;99.90;;;;;;5031092;28;20343;-76
2021/11/29 07:40:08;;;;;;;0.98;0.98;;;0.00;99.90;;;;;;5024390;28;20547;-77
2021/11/29 07:42:34;;;;;;;1.00;1.00;;;0.00;99.90;;;;;;5019653;28;20109;-76
2021/11/29 07:45:00;;;;;;;;;;;1.10;99.90;;;;;;5011329;28;20099;-77
2021/11/29 07:47:26;;;;;;;11.73;1.77;;;0.60;99.90;;;;;;5019834;28;19921;-76
2021/11/29 07:49:52;;;;;;;;;;;0.50;99.90;;;;;;5026393;28;20041;-77
2021/11/29 07:52:18;;;;;;;1.10;1.10;;;0.70;99.90;;;;;;5032586;28;20449;-77
2021/11/29 07:54:45;;;;;;;1.00;1.00;;;0.40;99.90;;;;;;5026836;28;20049;-77
2021/11/29 07:57:12;;;;;;;;;;;0.60;99.90;;;;;;5033558;28;20041;-76
2021/11/29 07:59:39;;;;;;;2.08;1.90;;;0.30;99.90;;;;;;5024897;28;20754;-77
2021/11/29 08:02:05;;;;;;;12.48;1.85;;;0.60;99.90;;;;;;5038083;28;20049;-77
2021/11/29 08:04:31;;;;;;;3.40;1.90;;;0.30;99.90;;;;;;5010738;28;20147;-76
2021/11/29 08:06:56;;;;;;;1.00;1.00;;;0.40;99.90;;;;;;4996496;28;20042;-76
2021/11/29 08:09:22;;;;;;;1.30;1.20;;;0.60;99.90;;;;;;5009312;28;20461;-77
2021/11/29 08:11:48;;;;;;;2.80;1.45;;;0.50;99.90;;;;;;5026654;28;20038;-76
2021/11/29 08:14:14;;;;;;;1.85;1.75;;;0.50;99.90;;;;;;5022220;28;20045;-77
2021/11/29 08:16:40;;;;;;;1.50;1.35;;;0.60;99.90;;;;;;5011223;28;20059;-77
2021/11/29 08:19:05;;;;;;;2.80;2.08;;;0.60;99.90;;;;;;5006629;28;20402;-76
2021/11/29 08:21:31;;;;;;;2.13;1.95;;;0.50;99.90;;;;;;4976952;28;20049;-77
2021/11/29 08:23:57;;;;;;;1.05;1.02;;;0.70;99.90;;;;;;5021277;28;20047;-77
2021/11/29 08:26:22;;;;;;;1.45;1.35;;;0.80;99.90;;;;;;4974449;28;20049;-77
2021/11/29 08:28:48;;;;;;;1.98;1.45;;;0.70;99.90;;;;;;5015233;28;20056;-77
2021/11/29 08:31:15;;;;;;;1.45;1.35;;;0.90;99.90;;;;;;5005322;28;20045;-77
2021/11/29 08:33:41;;;;;;;2.30;1.55;;;0.50;99.90;;;;;;4986863;28;20034;-76
2021/11/29 08:36:06;;;;;;;2.88;2.63;;;0.50;99.90;;;;;;4995907;28;20521;-76
2021/11/29 08:38:34;;;;;;;2.50;2.15;;;0.40;99.90;;;;;;5019916;28;20103;-76
2021/11/29 08:41:00;;;;;;;4.43;2.88;;;0.80;99.90;;;;;;4992702;28;20034;-76
2021/11/29 08:43:26;;;;;;;2.35;2.15;;;0.90;99.90;;;;;;4995215;28;20037;-76
2021/11/29 08:45:53;;;;;;;2.72;1.85;;;1.10;99.90;;;;;;5030439;28;20045;-77
2021/11/29 08:48:20;;;;;;;1.00;1.00;;;1.10;99.90;;;;;;5023194;28;20124;-76
2021/11/29 08:50:48;;;;;;;3.00;1.42;;;1.30;99.90;;;;;;5010172;28;20045;-76
2021/11/29 08:53:18;;;;;;;1.83;1.20;;;1.40;99.90;;;;;;5031180;28;20073;-76
2021/11/29 08:55:43;;;;;;;1.35;1.25;;;1.20;99.90;;;;;;5029405;28;20076;-76
2021/11/29 08:58:12;;;;;;;1.83;1.73;;;1.70;99.90;;;;;;5032367;28;20037;-77
2021/11/29 09:00:42;;;;;;;4.35;2.47;;;1.70;99.90;;;;;;5030065;28;20047;-76
2021/11/29 09:03:09;;;;;;;5.45;3.47;;;1.60;99.90;;;;;;5033042;28;20036;-77
2021/11/29 09:05:37;;;;;;;7.72;1.80;;;2.20;99.90;;;;;;5027257;28;20038;-77
2021/11/29 09:08:03;;;;;;;4.88;2.55;;;1.80;99.90;;;;;;5025670;28;20052;-77
2021/11/29 09:10:28;;;;;;;;;;;2.10;99.90;;;;;;5039408;28;20045;-76
2021/11/29 09:12:54;;;;;;;2.55;2.15;;;2.60;99.90;;;;;;5036212;28;20019;-77
2021/11/29 09:15:21;;;;;;;2.53;2.33;;;2.50;99.90;;;;;;5029888;28;20408;-77
2021/11/29 09:17:48;;;;;;;1.48;1.33;;;2.70;99.90;;;;;;5013237;28;20038;-76
2021/11/29 09:20:17;;;;;;;2.92;2.72;;;3.00;99.90;;;;;;5006003;28;21471;-76
2021/11/29 09:22:43;;;;;;;4.50;2.63;;;2.90;99.90;;;;;;5031515;28;20132;-76
2021/11/29 09:25:11;;;;;;;4.05;2.50;;;2.90;99.90;;;;;;5033086;28;20051;-76
2021/11/29 09:27:37;;;;;;;3.58;3.33;;;2.90;99.90;;;;;;5012148;28;20045;-76
2021/11/29 09:30:06;;;;;;;3.45;2.42;;;2.90;99.90;;;;;;5040312;28;20061;-77
2021/11/29 09:32:37;;;;;;;3.47;2.53;;;3.00;99.90;;;;;;5005299;28;20037;-77
2021/11/29 09:35:04;;;;;;;2.30;1.45;;;2.90;99.90;;;;;;5022532;28;20049;-76
2021/11/29 09:37:30;;;;;;;2.40;1.80;;;2.90;99.90;;;;;;5023576;28;20037;-77
2021/11/29 09:39:56;;;;;;;;;;;3.00;99.90;;;;;;5027348;28;20052;-76
2021/11/29 09:42:22;;;;;;;1.17;1.00;;;2.70;99.90;;;;;;5009683;28;19920;-76
2021/11/29 09:44:53;;;;;;;3.00;2.70;;;3.30;99.90;;;;;;5001368;28;20042;-77
2021/11/29 09:47:20;;;;;;;2.83;2.60;;;3.00;99.90;;;;;;5020104;28;20108;-77
2021/11/29 09:49:46;;;;;;;3.55;2.00;;;3.50;99.90;;;;;;5012685;28;20608;-77
2021/11/29 09:52:12;;;;;;;1.50;1.40;;;3.10;99.90;;;;;;5022890;28;20064;-77
2021/11/29 09:54:41;;;;;;;3.38;2.22;;;3.00;99.90;;;;;;5000226;28;20318;-76
2021/11/29 09:57:07;;;;;;;2.40;2.15;;;3.20;99.90;;;;;;5018702;28;20047;-77
2021/11/29 09:59:33;;;;;;;3.78;2.17;;;3.20;99.90;;;;;;5027083;28;20049;-77
2021/11/29 10:01:58;;;;;;;2.30;1.63;;;3.20;99.90;;;;;;5022018;28;20033;-77
2021/11/29 10:04:24;;;;;;;4.55;2.25;;;3.30;99.90;;;;;;5005344;28;20045;-77
2021/11/29 10:07:00;;;;;;;6.93;1.90;;;;;;;;;;5026696;28;20077;-77
2021/11/29 10:09:32;;;;;;;2.55;2.13;;;;;;;;;;5028052;28;20113;-77
2021/11/29 10:12:23;;;;;;;4.40;1.85;;;;;;;;;;5011931;28;20043;-77
2021/11/29 10:15:09;;;;;;;3.33;1.70;;;;;;;;;;5030742;28;20072;-77
2021/11/29 10:17:35;;;;;;;1.48;1.38;;;;;;;;;;5023734;28;20203;-77
2021/11/29 10:20:01;;;;;;;3.90;2.00;;;;;;;;;;5023888;28;20050;-76
2021/11/29 10:22:28;;;;;;;4.20;1.90;;;;;;;;;;5004941;28;20041;-76
2021/11/29 10:24:55;;;;;;;3.00;2.80;;;;;;;;;;5017023;28;20045;-75
2021/11/29 10:27:37;;;;;;;4.55;2.78;;;;;;;;;;5017643;28;20064;-77
2021/11/29 10:30:04;;;;;;;6.53;2.40;;;;;;;;;;5025520;28;20088;-76
2021/11/29 10:32:35;;;;;;;3.25;1.92;;;;;;;;;;5008909;28;20782;-78
2021/11/29 10:35:01;;;;;;;2.65;1.50;;;;;;;;;;5023347;28;20076;-76
2021/11/29 10:37:27;;;;;;;;;;;;;;;;;;5021594;28;20069;-77
2021/11/29 10:39:53;;;;;;;2.17;1.85;;;;;;;;;;5008297;28;20417;-76
2021/11/29 10:42:25;;;;;;;1.73;1.63;;;;;;;;;;4999807;28;20049;-76
2021/11/29 10:44:53;;;;;;;2.60;2.30;;;;;;;;;;5025269;28;20045;-77
2021/11/29 10:47:20;;;;;;;2.40;1.92;;;;;;;;;;5039506;28;20067;-76
2021/11/29 10:49:51;;;;;;;1.33;1.23;;;;;;;;;;5021499;28;20268;-76
2021/11/29 10:52:18;;;;;;;1.42;1.33;;;;;;;;;;5024158;28;20049;-76
2021/11/29 10:54:44;;;;;;;6.43;1.30;;;;;;;;;;5017221;28;20088;-76
2021/11/29 10:57:14;;;;;;;1.95;1.83;;;;;;;;;;5010900;28;20183;-77
2021/11/29 10:59:41;;;;;;;3.22;2.90;;;;;;;;;;5030074;28;20136;-76
2021/11/29 11:02:12;;;;;;;3.78;2.05;;;;;;;;;;5010201;28;20095;-77
2021/11/29 11:04:39;;;;;;;2.28;1.20;;;;;;;;;;5018228;28;20494;-77
2021/11/29 11:07:11;;;;;;;2.22;1.92;;;;;;;;;;5024839;28;20435;-78
2021/11/29 11:09:39;;;;;;;2.20;2.00;;;;;;;;;;5010436;28;20546;-76
2021/11/29 11:12:08;;;;;;;1.75;1.42;;;;;;;;;;5025632;28;20115;-76
2021/11/29 11:14:38;;;;;;;2.40;1.08;;;;;;;;;;5015387;28;20074;-76
2021/11/29 11:17:09;;;;;;;1.70;1.60;;;;;;;;;;5022443;28;20111;-77
2021/11/29 11:19:37;;;;;;;2.58;1.55;;;;;;;;;;5024155;28;20688;-76
2021/11/29 11:22:23;;;;;;;2.25;1.90;;;;;;;;;;5018877;28;20092;-76
2021/11/29 11:25:00;;;;;;;3.07;2.30;;;;;;;;;;4997540;28;20046;-76
2021/11/29 11:27:26;;;;;;;;;;;;;;;;;;5011140;28;20303;-76
2021/11/29 11:29:54;;;;;;;2.65;2.40;;;;;;;;;;5000433;28;19929;-75
2021/11/29 11:32:22;;;;;;;2.17;2.03;;;;;;;;;;5021073;28;20055;-76
2021/11/29 11:34:50;;;;;;;2.67;1.98;;;;;;;;;;5002468;28;20042;-75
2021/11/29 11:37:18;;;;;;;2.28;1.80;;;;;;;;;;5019332;28;20034;-76
2021/11/29 11:39:46;;;;;;;5.00;2.25;;;;;;;;;;5008775;28;20119;-75
2021/11/29 11:42:13;;;;;;;2.75;1.83;;;;;;;;;;5003255;28;20037;-75
2021/11/29 11:44:40;;;;;;;1.52;1.42;;;;;;;;;;5004005;28;20044;-77
2021/11/29 11:47:07;;;;;;;3.35;1.77;;;;;;;;;;5029511;28;20402;-77
2021/11/29 11:49:34;;;;;;;5.55;1.80;;;;;;;;;;5025287;28;20680;-76
2021/11/29 11:52:01;;;;;;;1.70;1.60;;;;;;;;;;5004781;28;20041;-76
2021/11/29 11:54:27;;;;;;;1.77;1.42;;;;;;;;;;5017450;28;20153;-77
2021/11/29 11:56:53;;;;;;;3.38;1.80;;;;;;;;;;5022547;28;21433;-76
2021/11/29 11:59:20;;;;;;;;;;;;;;;;;;5000363;28;20148;-76
2021/11/29 12:01:49;;;;;;;2.65;1.50;;;;;;;;;;5027555;28;20015;-77
2021/11/29 12:04:18;;;;;;;1.70;1.27;;;;;;;;;;5017282;28;20044;-77
2021/11/29 12:06:48;;;;;;;1.55;1.45;;;;;;;;;;4996623;28;20045;-77
2021/11/29 12:09:15;;;;;;;1.33;1.23;;;;;;;;;;5026008;28;20402;-77
2021/11/29 12:11:46;;;;;;;0.90;0.90;;;;;;;;;;5023897;28;20044;-75
2021/11/29 12:14:12;;;;;;;0.93;0.93;;;;;;;;;;5025922;28;20111;-76
2021/11/29 12:16:39;;;;;;;;;;;;;;;;;;5019876;28;20625;-75
2021/11/29 12:19:06;;;;;;;2.65;1.38;;;;;;;;;;5012359;28;19921;-76
2021/11/29 12:21:35;;;;;;;2.90;1.83;;;;;;;;;;4999986;28;20041;-76
2021/11/29 12:24:04;;;;;;;2.17;1.58;;;;;;;;;;5041923;28;20041;-77
2021/11/29 12:26:53;;;;;;;1.70;1.33;;;;;;;;;;5009825;28;20452;-75
2021/11/29 12:29:22;;;;;;;2.20;1.95;;;;;;;;;;5001817;28;20093;-76
2021/11/29 12:31:49;;;;;;;1.63;1.52;;;;;;;;;;5020649;28;20072;-75
2021/11/29 12:34:16;;;;;;;1.40;1.30;;;;;;;;;;5030117;28;20048;-76
2021/11/29 12:37:00;;;;;;;3.88;2.15;;;;;;;;;;5008157;28;20037;-75
2021/11/29 12:39:44;;;;;;;1.30;1.20;;;;;;;;;;5028499;28;20096;-75
2021/11/29 12:42:22;;;;;;;2.85;2.08;;;;;;;;;;5016899;28;20049;-76
2021/11/29 12:45:04;;;;;;;1.75;1.20;;;;;;;;;;5022841;28;20041;-75
2021/11/29 12:47:32;;;;;;;2.38;1.88;;;;;;;;;;5008464;28;20523;-76
2021/11/29 12:50:05;;;;;;;1.08;1.05;;;;;;;;;;5016329;28;20036;-76
2021/11/29 12:52:36;;;;;;;1.20;0.98;;;;;;;;;;5025395;28;20045;-75
2021/11/29 12:55:07;;;;;;;1.63;1.40;;;;;;;;;;5027727;28;20414;-75
2021/11/29 12:57:34;;;;;;;1.17;1.10;;;5.40;99.90;;;;;;5024782;28;20073;-75
2021/11/29 13:00:08;;;;;;;1.58;1.48;;;5.30;99.90;;;;;;5016034;28;20410;-76
2021/11/29 13:03:00;;;;;;;2.03;1.30;;;5.40;99.90;;;;;;5004116;28;20046;-75
2021/11/29 13:05:26;;;;;;;1.85;1.55;;;5.30;99.90;;;;;;5025700;28;20042;-75
2021/11/29 13:08:07;;;;;;;1.38;1.27;;;5.50;99.90;;;;;;5032250;28;20037;-76
2021/11/29 13:10:57;;;;;;;0.98;0.98;;;5.40;99.90;;;;;;5005875;28;20046;-76
2021/11/29 13:13:32;;;;;;;1.98;1.77;;;5.50;99.90;;;;;;5025872;28;20045;-75
2021/11/29 13:16:00;;;;;;;2.05;1.58;;;5.50;99.90;;;;;;5009001;28;20045;-75
2021/11/29 13:18:52;;;;;;;2.55;1.98;;;5.40;99.90;;;;;;5007106;28;20083;-76
2021/11/29 13:21:29;;;;;;;2.92;1.02;;;5.30;99.90;;;;;;5021095;28;20072;-76
2021/11/29 13:24:00;;;;;;;;;;;5.30;99.90;;;;;;5025689;28;20355;-76